Time;durP1;ratioP1;P1;durP2;ratioP2;P2;SDS_P1;SDS_P2;PMS_P1;PMS_P2;Temp;Humidity;BMP_temperature;BMP_pressure;BME280_temperature;BME280_humidity;BME280_pressure;Samples;Min_cycle;Max_cycle;Signal;HPM_P1;HPM_P2
2022/09/02 00:01:56;;;;;;;2.67;2.10;;;18.20;99.90;;;;;;4995909;28;20229;-70
2022/09/02 00:04:25;;;;;;;3.90;2.10;;;18.10;99.90;;;;;;4999771;28;20404;-70
2022/09/02 00:06:53;;;;;;;12.23;6.10;;;18.10;99.90;;;;;;4995199;28;20197;-71
2022/09/02 00:09:21;;;;;;;16.13;8.10;;;18.10;99.90;;;;;;4998294;28;20200;-71
2022/09/02 00:11:49;;;;;;;15.60;8.20;;;18.00;99.90;;;;;;4996815;28;20252;-71
2022/09/02 00:14:22;;;;;;;8.63;4.93;;;17.90;99.90;;;;;;4995152;28;20242;-71
2022/09/02 00:16:51;;;;;;;3.33;2.50;;;17.90;99.90;;;;;;4996902;28;20201;-70
2022/09/02 00:19:24;;;;;;;4.37;2.20;;;17.80;99.90;;;;;;5022715;28;20197;-71
2022/09/02 00:21:52;;;;;;;3.23;2.10;;;17.80;99.90;;;;;;4999959;28;20238;-71
2022/09/02 00:24:20;;;;;;;6.17;2.07;;;17.90;99.90;;;;;;4999154;28;20196;-71
2022/09/02 00:26:48;;;;;;;2.03;1.60;;;18.10;99.90;;;;;;5009610;28;20200;-71
2022/09/02 00:29:15;;;;;;;3.10;1.63;;;18.10;99.90;;;;;;4996955;28;20200;-71
2022/09/02 00:31:43;;;;;;;2.23;2.03;;;18.00;99.90;;;;;;4998418;28;20258;-71
2022/09/02 00:34:11;;;;;;;3.13;1.80;;;17.90;99.90;;;;;;5001624;28;20305;-70
2022/09/02 00:36:38;;;;;;;3.53;1.80;;;17.90;99.90;;;;;;4998760;28;20200;-71
2022/09/02 00:39:07;;;;;;;2.33;1.60;;;17.80;99.90;;;;;;4990268;28;20205;-72
2022/09/02 00:41:35;;;;;;;2.13;1.60;;;17.80;99.90;;;;;;4996652;28;20228;-71
2022/09/02 00:44:07;;;;;;;4.20;2.00;;;17.70;99.90;;;;;;5001247;28;20192;-71
2022/09/02 00:46:35;;;;;;;6.30;1.83;;;17.80;99.90;;;;;;4994921;28;20204;-71
2022/09/02 00:49:13;;;;;;;2.57;1.80;;;17.80;99.90;;;;;;5002593;28;20200;-70
2022/09/02 00:51:42;;;;;;;3.10;1.83;;;17.80;99.90;;;;;;4988399;28;20220;-71
2022/09/02 00:54:11;;;;;;;2.30;1.80;;;17.80;99.90;;;;;;5000337;28;20196;-71
2022/09/02 00:56:42;;;;;;;3.70;1.70;;;17.80;99.90;;;;;;5002466;28;20204;-71
2022/09/02 00:59:16;;;;;;;4.83;1.83;;;17.90;99.90;;;;;;4992986;28;20203;-70
2022/09/02 01:01:43;;;;;;;4.27;1.83;;;17.90;99.90;;;;;;4997100;28;20227;-70
2022/09/02 01:04:11;;;;;;;3.60;1.70;;;17.90;99.90;;;;;;5000686;28;20193;-70
2022/09/02 01:06:38;;;;;;;1.70;1.60;;;17.80;99.90;;;;;;4997067;28;20196;-70
2022/09/02 01:09:11;;;;;;;1.70;1.60;;;17.80;99.90;;;;;;5001155;28;20193;-69
2022/09/02 01:11:42;;;;;;;1.93;1.70;;;17.70;99.90;;;;;;4996363;28;20583;-70
2022/09/02 01:14:12;;;;;;;1.80;1.70;;;17.50;99.90;;;;;;4996548;28;20223;-70
2022/09/02 01:16:45;;;;;;;3.03;1.47;;;17.50;99.90;;;;;;4996907;28;20352;-70
2022/09/02 01:19:19;;;;;;;3.93;1.83;;;17.40;99.90;;;;;;4999464;28;20201;-70
2022/09/02 01:21:47;;;;;;;1.90;1.73;;;17.30;99.90;;;;;;4998744;28;20869;-70
2022/09/02 01:24:16;;;;;;;3.57;1.83;;;17.20;99.90;;;;;;4995939;28;20655;-70
2022/09/02 01:26:43;;;;;;;4.70;1.70;;;17.20;99.90;;;;;;5002173;28;20204;-70
2022/09/02 01:29:10;;;;;;;2.10;1.60;;;17.20;99.90;;;;;;4993081;28;20192;-71
2022/09/02 01:31:38;;;;;;;2.60;1.70;;;17.20;99.90;;;;;;5005264;28;20220;-70
2022/09/02 01:34:05;;;;;;;3.27;1.70;;;17.30;99.90;;;;;;4996967;28;20283;-70
2022/09/02 01:36:36;;;;;;;2.23;1.67;;;17.20;99.90;;;;;;4992092;28;20193;-70
2022/09/02 01:39:02;;;;;;;2.57;1.73;;;17.20;99.90;;;;;;4996839;28;20669;-70
2022/09/02 01:41:29;;;;;;;3.47;1.60;;;17.00;99.90;;;;;;4995700;28;20208;-71
2022/09/02 01:43:56;;;;;;;2.53;1.73;;;16.90;99.90;;;;;;4997708;28;20613;-71
2022/09/02 01:46:22;;;;;;;1.93;1.70;;;16.90;99.90;;;;;;4992524;28;20258;-71
2022/09/02 01:48:50;;;;;;;4.93;2.00;;;17.00;99.90;;;;;;4987790;28;20213;-71
2022/09/02 01:51:19;;;;;;;3.53;1.83;;;17.00;99.90;;;;;;4989710;28;20204;-71
2022/09/02 01:53:47;;;;;;;2.13;1.70;;;16.90;99.90;;;;;;4993911;28;20471;-71
2022/09/02 01:56:15;;;;;;;2.57;1.93;;;16.90;99.90;;;;;;4998456;28;20196;-71
2022/09/02 01:58:42;;;;;;;2.30;1.77;;;16.70;99.90;;;;;;4998406;28;20204;-71
2022/09/02 02:01:10;;;;;;;4.77;1.80;;;16.60;99.90;;;;;;4999987;28;20199;-71
2022/09/02 02:03:37;;;;;;;4.07;1.93;;;16.60;99.90;;;;;;4997831;28;20229;-70
2022/09/02 02:06:13;;;;;;;2.30;2.10;;;16.60;99.90;;;;;;5001717;28;20203;-70
2022/09/02 02:08:40;;;;;;;3.20;1.83;;;16.60;99.90;;;;;;4990924;28;20196;-70
2022/09/02 02:11:08;;;;;;;2.40;1.93;;;16.60;99.90;;;;;;5002847;28;20566;-70
2022/09/02 02:13:35;;;;;;;2.60;2.03;;;16.60;99.90;;;;;;5002805;28;20220;-69
2022/09/02 02:16:03;;;;;;;2.33;1.70;;;16.60;99.90;;;;;;5008105;28;20603;-70
2022/09/02 02:18:30;;;;;;;1.80;1.63;;;16.60;99.90;;;;;;5006996;28;20192;-70
2022/09/02 02:20:56;;;;;;;2.90;2.10;;;16.50;99.90;;;;;;5000849;28;20205;-70
2022/09/02 02:23:23;;;;;;;3.27;1.90;;;16.40;99.90;;;;;;4998784;28;20224;-70
2022/09/02 02:25:50;;;;;;;3.60;1.87;;;16.50;99.90;;;;;;5008299;28;20199;-70
2022/09/02 02:28:17;;;;;;;3.70;1.97;;;16.50;99.90;;;;;;5008466;28;20201;-70
2022/09/02 02:30:43;;;;;;;2.97;2.10;;;16.40;99.90;;;;;;4999297;28;20193;-70
2022/09/02 02:33:10;;;;;;;3.27;2.00;;;16.40;99.90;;;;;;5001088;28;20212;-70
2022/09/02 02:35:37;;;;;;;3.07;1.87;;;16.40;99.90;;;;;;4999125;28;20208;-71
2022/09/02 02:38:04;;;;;;;2.60;2.00;;;16.40;99.90;;;;;;4998180;28;20204;-71
2022/09/02 02:40:31;;;;;;;2.80;1.83;;;16.50;99.90;;;;;;5004281;28;20200;-70
2022/09/02 02:42:58;;;;;;;2.17;1.90;;;16.40;99.90;;;;;;5001282;28;20232;-70
2022/09/02 02:45:25;;;;;;;3.47;1.80;;;16.30;99.90;;;;;;5000685;28;20192;-70
2022/09/02 02:47:53;;;;;;;3.60;2.03;;;16.10;99.90;;;;;;5008094;28;20563;-70
2022/09/02 02:50:22;;;;;;;5.33;1.77;;;15.90;99.90;;;;;;5001485;28;20196;-70
2022/09/02 02:52:49;;;;;;;3.50;2.17;;;15.80;99.90;;;;;;5015317;28;20478;-69
2022/09/02 02:55:16;;;;;;;3.33;1.90;;;15.80;99.90;;;;;;5016237;28;20196;-69
2022/09/02 02:57:44;;;;;;;2.27;1.90;;;15.70;99.90;;;;;;5010730;28;20203;-70
2022/09/02 03:00:19;;;;;;;4.23;2.20;;;15.60;99.90;;;;;;4996248;28;20327;-70
2022/09/02 03:02:45;;;;;;;2.20;2.00;;;15.50;99.90;;;;;;4999998;28;20228;-70
2022/09/02 03:05:14;;;;;;;2.47;2.00;;;15.60;99.90;;;;;;5004848;28;20199;-70
2022/09/02 03:07:41;;;;;;;2.67;2.07;;;15.70;99.90;;;;;;5002447;28;20197;-70
2022/09/02 03:10:09;;;;;;;3.43;2.10;;;15.70;99.90;;;;;;5000737;28;20200;-70
2022/09/02 03:12:38;;;;;;;2.77;2.20;;;15.70;99.90;;;;;;5006418;28;20224;-70
2022/09/02 03:15:06;;;;;;;2.67;1.80;;;15.80;99.90;;;;;;4997377;28;20196;-70
2022/09/02 03:17:33;;;;;;;2.43;1.93;;;15.90;99.90;;;;;;5004783;28;20204;-70
2022/09/02 03:20:00;;;;;;;2.40;1.63;;;15.90;99.90;;;;;;5003594;28;20208;-70
2022/09/02 03:22:27;;;;;;;3.70;1.97;;;15.80;99.90;;;;;;5004203;28;20232;-70
2022/09/02 03:24:53;;;;;;;2.80;1.90;;;15.70;99.90;;;;;;5004897;28;20200;-70
2022/09/02 03:27:20;;;;;;;2.30;1.80;;;15.80;99.90;;;;;;5006893;28;20224;-70
2022/09/02 03:29:47;;;;;;;2.73;2.00;;;15.80;99.90;;;;;;5007022;28;20211;-70
2022/09/02 03:32:14;;;;;;;3.13;1.80;;;15.90;99.90;;;;;;5006796;28;20219;-70
2022/09/02 03:34:41;;;;;;;3.43;2.10;;;16.00;99.90;;;;;;4998103;28;20748;-70
2022/09/02 03:37:08;;;;;;;3.40;1.97;;;15.90;99.90;;;;;;5003876;28;20207;-70
2022/09/02 03:39:37;;;;;;;1.97;1.87;;;15.90;99.90;;;;;;4992041;28;20201;-70
2022/09/02 03:42:03;;;;;;;3.10;1.90;;;15.90;99.90;;;;;;4996602;28;20586;-70
2022/09/02 03:44:33;;;;;;;1.90;1.70;;;15.90;99.90;;;;;;4999603;28;20412;-70
2022/09/02 03:47:00;;;;;;;3.00;2.00;;;16.00;99.90;;;;;;5001466;28;20280;-70
2022/09/02 03:49:27;;;;;;;3.07;2.10;;;16.10;99.90;;;;;;5000174;28;20691;-70
2022/09/02 03:51:54;;;;;;;2.70;1.90;;;16.10;99.90;;;;;;5000992;28;20680;-70
2022/09/02 03:54:20;;;;;;;3.63;2.10;;;16.10;99.90;;;;;;4998976;28;20201;-70
2022/09/02 03:56:47;;;;;;;2.33;1.80;;;16.20;99.90;;;;;;5003995;28;20491;-70
2022/09/02 03:59:15;;;;;;;2.60;2.03;;;16.20;99.90;;;;;;5001084;28;20376;-70
2022/09/02 04:01:41;;;;;;;3.83;1.90;;;16.30;99.90;;;;;;4996926;28;20228;-70
2022/09/02 04:04:08;;;;;;;2.00;1.77;;;16.30;99.90;;;;;;5004003;28;20216;-70
2022/09/02 04:06:35;;;;;;;2.20;2.00;;;16.30;99.90;;;;;;4994885;28;20200;-70
2022/09/02 04:09:03;;;;;;;3.27;1.70;;;16.40;99.90;;;;;;5005966;28;20197;-70
2022/09/02 04:11:30;;;;;;;3.33;1.97;;;16.30;99.90;;;;;;4999422;28;20224;-69
2022/09/02 04:13:57;;;;;;;5.33;1.90;;;16.40;99.90;;;;;;5005032;28;20417;-70
2022/09/02 04:16:27;;;;;;;8.60;2.60;;;16.40;99.90;;;;;;5000488;28;20199;-70
2022/09/02 04:18:56;;;;;;;2.60;1.90;;;16.60;99.90;;;;;;4998693;28;20205;-70
2022/09/02 04:21:25;;;;;;;3.13;2.30;;;16.60;99.90;;;;;;4996882;28;20227;-70
2022/09/02 04:23:52;;;;;;;4.10;2.27;;;16.60;99.90;;;;;;5003042;28;20692;-70
2022/09/02 04:26:21;;;;;;;2.00;1.80;;;16.60;99.90;;;;;;4997301;28;20189;-70
2022/09/02 04:28:49;;;;;;;4.20;2.20;;;16.70;99.90;;;;;;4996954;28;20196;-70
2022/09/02 04:31:17;;;;;;;2.40;2.20;;;16.70;99.90;;;;;;5000326;28;20192;-70
2022/09/02 04:33:45;;;;;;;2.60;2.00;;;16.70;99.90;;;;;;4994721;28;20204;-70
2022/09/02 04:36:14;;;;;;;4.43;1.80;;;16.60;99.90;;;;;;4997441;28;20231;-70
2022/09/02 04:38:40;;;;;;;3.10;2.27;;;16.60;99.90;;;;;;4998709;28;20200;-70
2022/09/02 04:41:09;;;;;;;2.80;2.27;;;16.60;99.90;;;;;;4992709;28;20212;-70
2022/09/02 04:43:36;;;;;;;3.90;1.90;;;16.60;99.90;;;;;;5000239;28;20246;-70
2022/09/02 04:46:05;;;;;;;3.83;2.10;;;16.50;99.90;;;;;;5006509;28;20196;-70
2022/09/02 04:48:33;;;;;;;2.37;1.90;;;16.50;99.90;;;;;;4999236;28;20614;-70
2022/09/02 04:51:23;;;;;;;4.17;2.00;;;16.50;99.90;;;;;;5002613;28;20203;-70
2022/09/02 04:53:52;;;;;;;3.47;2.20;;;16.50;99.90;;;;;;4997924;28;20216;-70
2022/09/02 04:56:24;;;;;;;4.10;2.20;;;16.30;99.90;;;;;;5002047;28;20204;-70
2022/09/02 04:58:51;;;;;;;3.00;2.27;;;16.30;99.90;;;;;;4994213;28;20227;-70
2022/09/02 05:01:22;;;;;;;2.50;2.10;;;16.20;99.90;;;;;;4999992;28;20204;-70
2022/09/02 05:03:50;;;;;;;2.20;1.90;;;16.10;99.90;;;;;;5000688;28;20216;-70
2022/09/02 05:06:20;;;;;;;5.63;3.00;;;16.10;99.90;;;;;;4998975;28;20196;-70
2022/09/02 05:08:47;;;;;;;2.47;2.00;;;16.10;99.90;;;;;;4997764;28;20576;-69
2022/09/02 05:11:18;;;;;;;3.17;2.23;;;16.10;99.90;;;;;;4999967;28;20200;-69
2022/09/02 05:13:48;;;;;;;2.43;2.20;;;16.10;99.90;;;;;;4996271;28;20255;-70
2022/09/02 05:16:19;;;;;;;3.43;2.20;;;16.10;99.90;;;;;;4989946;28;20200;-70
2022/09/02 05:18:47;;;;;;;2.87;2.23;;;16.10;99.90;;;;;;5000027;28;20227;-70
2022/09/02 05:21:15;;;;;;;2.97;2.23;;;16.20;99.90;;;;;;4990060;28;20204;-70
2022/09/02 05:23:42;;;;;;;3.63;2.27;;;16.10;99.90;;;;;;5000043;28;20220;-70
2022/09/02 05:26:11;;;;;;;2.47;2.27;;;16.10;99.90;;;;;;4993197;28;20283;-70
2022/09/02 05:28:40;;;;;;;5.93;2.37;;;16.00;99.90;;;;;;4997644;28;20204;-69
2022/09/02 05:31:10;;;;;;;4.80;2.57;;;16.00;99.90;;;;;;5000461;28;20420;-70
2022/09/02 05:33:39;;;;;;;2.93;2.40;;;16.10;99.90;;;;;;5007301;28;20215;-70
2022/09/02 05:36:08;;;;;;;3.07;2.60;;;16.20;99.90;;;;;;5001446;28;20227;-70
2022/09/02 05:38:35;;;;;;;3.37;2.53;;;16.00;99.90;;;;;;5004796;28;20288;-70
2022/09/02 05:41:07;;;;;;;2.80;2.27;;;16.10;99.90;;;;;;4996717;28;20197;-69
2022/09/02 05:43:39;;;;;;;3.63;2.20;;;16.20;99.90;;;;;;5002388;28;20224;-69
2022/09/02 05:46:09;;;;;;;8.63;2.73;;;16.20;99.90;;;;;;4998652;28;20192;-70
2022/09/02 05:51:22;;;;;;;3.40;2.40;;;16.40;99.90;;;;;;4990130;28;20197;-70
2022/09/02 05:53:54;;;;;;;3.27;2.30;;;16.40;99.90;;;;;;4995359;28;20201;-68
2022/09/02 05:56:22;;;;;;;2.93;2.33;;;16.40;99.90;;;;;;5001285;28;20203;-68
2022/09/02 05:58:49;;;;;;;4.80;2.33;;;16.60;99.90;;;;;;4993960;28;20311;-69
2022/09/02 06:01:18;;;;;;;6.10;2.70;;;16.80;99.90;;;;;;5001743;28;20201;-70
2022/09/02 06:03:45;;;;;;;3.90;2.20;;;16.90;99.90;;;;;;4994318;28;20216;-70
2022/09/02 06:06:12;;;;;;;4.53;2.27;;;16.90;99.90;;;;;;5006476;28;20189;-70
2022/09/02 06:08:39;;;;;;;4.90;2.27;;;17.10;99.90;;;;;;4993974;28;20211;-68
2022/09/02 06:11:10;;;;;;;6.97;2.70;;;17.30;99.90;;;;;;4997214;28;20207;-69
2022/09/02 06:13:40;;;;;;;5.40;2.30;;;17.50;99.90;;;;;;5003124;28;20656;-75
2022/09/02 06:16:12;;;;;;;7.87;2.83;;;17.60;99.90;;;;;;4998916;28;20607;-68
2022/09/02 06:18:39;;;;;;;8.43;2.60;;;17.70;99.90;;;;;;4997685;28;20300;-68
2022/09/02 06:21:06;;;;;;;5.93;2.33;;;17.80;99.90;;;;;;4999396;28;20199;-68
2022/09/02 06:23:35;;;;;;;4.73;2.20;;;18.10;99.90;;;;;;5007785;28;20239;-68
2022/09/02 06:26:02;;;;;;;7.13;2.40;;;18.30;99.90;;;;;;4999571;28;20274;-68
2022/09/02 06:28:29;;;;;;;3.67;2.30;;;18.50;99.90;;;;;;4996808;28;20208;-68
2022/09/02 06:30:56;;;;;;;4.57;2.30;;;18.70;99.90;;;;;;4993329;28;20759;-68
2022/09/02 06:33:23;;;;;;;4.03;2.43;;;19.00;99.90;;;;;;5005447;28;20373;-67
2022/09/02 06:35:49;;;;;;;9.37;2.30;;;19.10;99.90;;;;;;5004814;28;20208;-67
2022/09/02 06:38:18;;;;;;;7.07;2.23;;;19.20;99.90;;;;;;4990388;28;20208;-69
2022/09/02 06:40:51;;;;;;;4.83;2.10;;;19.30;99.90;;;;;;4990658;28;20572;-71
2022/09/02 06:43:18;;;;;;;5.10;2.40;;;19.50;99.90;;;;;;4995957;28;20681;-67
2022/09/02 06:45:45;;;;;;;4.10;2.63;;;19.60;99.90;;;;;;4995037;28;20204;-68
2022/09/02 06:48:13;;;;;;;7.67;2.70;;;19.70;99.90;;;;;;4998705;28;20731;-68
2022/09/02 06:50:41;;;;;;;5.50;2.00;;;19.80;99.90;;;;;;5000750;28;20215;-69
2022/09/02 06:53:10;;;;;;;8.10;2.13;;;19.90;99.90;;;;;;5000261;28;20212;-67
2022/09/02 06:55:38;;;;;;;6.83;2.20;;;20.00;99.90;;;;;;5005642;28;20234;-67
2022/09/02 06:58:05;;;;;;;5.93;2.07;;;19.90;99.90;;;;;;4998713;28;20669;-65
2022/09/02 07:00:34;;;;;;;1.97;1.77;;;19.90;99.90;;;;;;4998661;28;20200;-66
2022/09/02 07:05:56;;;;;;;3.80;1.90;;;20.00;99.90;;;;;;4993791;28;20592;-66
2022/09/02 07:08:23;;;;;;;6.33;2.00;;;20.00;99.90;;;;;;4992189;28;20491;-67
2022/09/02 07:10:50;;;;;;;10.30;2.10;;;19.90;99.90;;;;;;4994271;28;20197;-66
2022/09/02 07:13:16;;;;;;;2.77;1.80;;;19.90;99.90;;;;;;4999117;28;20239;-66
2022/09/02 07:15:43;;;;;;;6.13;2.17;;;20.00;99.90;;;;;;4994216;28;20558;-67
2022/09/02 07:18:10;;;;;;;2.80;2.00;;;20.00;99.90;;;;;;4997343;28;20654;-67
2022/09/02 07:20:37;;;;;;;4.03;1.97;;;20.00;99.90;;;;;;4997423;28;20692;-68
2022/09/02 07:23:03;;;;;;;3.40;2.03;;;20.10;99.90;;;;;;5000369;28;20225;-68
2022/09/02 07:25:30;;;;;;;2.80;1.70;;;20.40;99.90;;;;;;5008910;28;20196;-67
2022/09/02 07:27:57;;;;;;;2.27;1.90;;;20.50;99.90;;;;;;4999935;28;20207;-67
2022/09/02 07:30:24;;;;;;;3.13;2.00;;;20.50;99.90;;;;;;4992064;28;20192;-68
2022/09/02 07:32:50;;;;;;;3.90;1.80;;;20.40;99.90;;;;;;5000085;28;20220;-67
2022/09/02 07:35:17;;;;;;;4.93;1.97;;;20.30;99.90;;;;;;4998522;28;20196;-68
2022/09/02 07:37:44;;;;;;;3.17;2.10;;;20.40;99.90;;;;;;4999628;28;20205;-68
2022/09/02 07:40:11;;;;;;;4.47;2.20;;;20.60;99.90;;;;;;5001914;28;20204;-67
2022/09/02 07:42:38;;;;;;;3.77;2.17;;;20.40;99.90;;;;;;5002890;28;20677;-68
2022/09/02 07:45:06;;;;;;;2.50;1.87;;;20.40;99.90;;;;;;5005098;28;20599;-66
2022/09/02 07:47:33;;;;;;;8.23;2.93;;;20.50;99.90;;;;;;4997373;28;20660;-66
2022/09/02 07:50:04;;;;;;;2.87;2.20;;;20.50;99.90;;;;;;4993191;28;20254;-71
2022/09/02 07:52:49;;;;;;;4.83;1.77;;;20.50;99.90;;;;;;4994245;28;20227;-68
2022/09/02 07:55:16;;;;;;;3.50;2.00;;;20.40;99.90;;;;;;4977599;28;21006;-72
2022/09/02 08:01:30;;;;;;;3.97;2.40;;;20.70;99.90;;;;;;4962689;28;20539;-70
2022/09/02 08:03:57;;;;;;;6.30;2.07;;;20.80;99.90;;;;;;4999456;28;20220;-68
2022/09/02 08:06:30;;;;;;;3.90;2.00;;;20.80;99.90;;;;;;4996807;28;20809;-68
2022/09/02 08:09:05;;;;;;;5.40;1.98;;;21.00;99.90;;;;;;5001652;28;20204;-68
2022/09/02 08:11:35;;;;;;;4.97;2.10;;;21.10;99.90;;;;;;4996288;28;20212;-68
2022/09/02 08:14:02;;;;;;;5.05;2.08;;;21.30;99.90;;;;;;4993745;28;20340;-69
2022/09/02 08:16:29;;;;;;;4.18;1.70;;;21.40;99.90;;;;;;5001998;28;20208;-67
2022/09/02 08:18:57;;;;;;;3.42;2.28;;;21.50;99.90;;;;;;5000014;28;20670;-69
2022/09/02 08:21:24;;;;;;;5.47;2.08;;;21.60;99.90;;;;;;4996642;28;20225;-69
2022/09/02 08:23:51;;;;;;;6.15;2.05;;;21.70;99.90;;;;;;4993748;28;20303;-68
2022/09/02 08:26:18;;;;;;;3.05;2.03;;;21.60;99.90;;;;;;4991318;28;20205;-69
2022/09/02 08:28:45;;;;;;;6.40;2.20;;;21.60;99.90;;;;;;4996111;28;20208;-69
2022/09/02 08:31:11;;;;;;;2.63;1.95;;;21.70;99.90;;;;;;4996722;28;20204;-69
2022/09/02 08:33:38;;;;;;;3.67;1.73;;;21.80;99.90;;;;;;4995611;28;20231;-68
2022/09/02 08:36:10;;;;;;;2.88;2.00;;;21.90;99.90;;;;;;4996364;28;20192;-67
2022/09/02 08:38:37;;;;;;;2.10;1.90;;;22.10;99.90;;;;;;4993237;28;20197;-67
2022/09/02 08:41:20;;;;;;;5.15;2.20;;;22.20;99.90;;;;;;4996756;28;20193;-67
2022/09/02 08:43:50;;;;;;;4.65;2.20;;;22.30;99.90;;;;;;4999031;28;20221;-68
2022/09/02 08:46:17;;;;;;;12.85;2.42;;;22.10;99.90;;;;;;4993716;28;20193;-69
2022/09/02 08:48:46;;;;;;;2.63;1.83;;;22.00;99.90;;;;;;5001458;28;20196;-68
2022/09/02 08:51:19;;;;;;;2.95;2.03;;;22.10;99.90;;;;;;4991204;28;20644;-68
2022/09/02 08:54:04;;;;;;;4.88;2.10;;;22.30;99.90;;;;;;4993286;28;20204;-68
2022/09/02 08:56:31;;;;;;;4.47;1.95;;;22.50;99.90;;;;;;4994589;28;20193;-70
2022/09/02 08:59:02;;;;;;;3.40;1.95;;;22.60;99.90;;;;;;4999189;28;20196;-67
2022/09/02 09:01:55;;;;;;;4.05;2.05;;;22.50;99.90;;;;;;4993642;28;20200;-68
2022/09/02 09:04:52;;;;;;;4.30;2.03;;;22.60;99.90;;;;;;4993167;28;20221;-67
2022/09/02 09:07:23;;;;;;;2.85;2.25;;;22.60;99.90;;;;;;4992700;28;20193;-69
2022/09/02 09:10:23;;;;;;;4.80;2.00;;;22.50;99.90;;;;;;4992949;28;20232;-66
2022/09/02 09:12:56;;;;;;;4.35;1.90;;;22.40;99.90;;;;;;4996771;28;20226;-67
2022/09/02 09:15:56;;;;;;;6.50;2.33;;;22.50;99.90;;;;;;4997403;28;20653;-67
2022/09/02 09:18:40;;;;;;;5.47;2.10;;;22.80;99.90;;;;;;4990900;28;20200;-67
2022/09/02 09:21:07;;;;;;;2.58;1.92;;;23.00;99.90;;;;;;4995881;28;20200;-66
2022/09/02 09:23:40;;;;;;;4.68;1.80;;;23.10;99.90;;;;;;4995887;28;20631;-66
2022/09/02 09:26:17;;;;;;;3.63;1.80;;;23.30;99.90;;;;;;4995542;28;20560;-66
2022/09/02 09:28:47;;;;;;;3.65;1.80;;;23.50;99.90;;;;;;4994160;28;20570;-66
2022/09/02 09:31:20;;;;;;;2.35;1.60;;;23.60;99.90;;;;;;4995252;28;20196;-67
2022/09/02 09:33:58;;;;;;;1.83;1.70;;;23.70;99.90;;;;;;4992654;28;20665;-67
2022/09/02 09:36:40;;;;;;;2.55;1.85;;;24.00;99.90;;;;;;4994386;28;20196;-67
2022/09/02 09:39:25;;;;;;;2.72;1.85;;;24.10;99.90;;;;;;4994866;28;20196;-67
2022/09/02 09:42:03;;;;;;;3.75;1.80;;;24.30;99.90;;;;;;4994593;28;20599;-67
2022/09/02 09:44:43;;;;;;;2.55;1.60;;;24.40;99.90;;;;;;4997242;28;20234;-67
2022/09/02 09:47:18;;;;;;;4.32;2.00;;;24.50;99.90;;;;;;4996294;28;20214;-67
2022/09/02 09:49:50;;;;;;;2.10;1.70;;;24.70;99.90;;;;;;4997483;28;20195;-67
2022/09/02 09:52:29;;;;;;;3.35;1.70;;;24.80;99.90;;;;;;5000017;28;20212;-67
2022/09/02 09:55:28;;;;;;;2.67;1.70;;;24.60;99.90;;;;;;4992674;28;24198;-67
2022/09/02 09:58:08;;;;;;;4.18;1.70;;;24.80;99.90;;;;;;4960489;28;20925;-67
2022/09/02 10:00:35;;;;;;;3.83;1.67;;;24.90;99.90;;;;;;4993912;28;20383;-67
2022/09/02 10:03:05;;;;;;;3.75;1.70;;;25.00;99.90;;;;;;4992153;28;20233;-68
2022/09/02 10:05:35;;;;;;;4.55;1.65;;;24.80;99.90;;;;;;4996482;28;20307;-66
2022/09/02 10:08:17;;;;;;;6.20;1.52;;;24.40;99.90;;;;;;4996897;28;20212;-66
2022/09/02 10:10:56;;;;;;;1.50;1.40;;;24.40;99.90;;;;;;4996532;28;20192;-66
2022/09/02 10:13:26;;;;;;;2.45;1.50;;;24.80;99.90;;;;;;4995984;28;20687;-66
2022/09/02 10:16:27;;;;;;;2.67;1.40;;;25.00;99.70;;;;;;4993090;28;20200;-66
2022/09/02 10:19:01;;;;;;;3.85;1.40;;;25.40;99.30;;;;;;4992310;28;20634;-66
2022/09/02 10:21:33;;;;;;;2.75;1.30;;;25.70;98.20;;;;;;4997842;28;20574;-67
2022/09/02 10:24:11;;;;;;;4.10;1.48;;;26.00;97.00;;;;;;5002330;28;20215;-67
2022/09/02 10:26:48;;;;;;;2.17;1.20;;;26.20;95.10;;;;;;4997626;28;20203;-67
2022/09/02 10:30:03;;;;;;;5.05;1.48;;;26.60;94.40;;;;;;4999868;28;20196;-67
2022/09/02 10:32:29;;;;;;;4.78;1.50;;;26.70;94.50;;;;;;4995498;28;20218;-67
2022/09/02 10:35:07;;;;;;;3.13;1.48;;;26.70;93.90;;;;;;4996233;28;20215;-67
2022/09/02 10:37:54;;;;;;;2.17;1.60;;;26.80;94.10;;;;;;5000320;28;20665;-67
2022/09/02 10:40:32;;;;;;;2.15;1.40;;;26.80;93.60;;;;;;4999095;28;20638;-67
2022/09/02 10:43:09;;;;;;;3.55;1.20;;;26.90;93.90;;;;;;5001302;28;20591;-67
2022/09/02 10:45:38;;;;;;;1.45;1.20;;;26.80;94.10;;;;;;4998176;28;20223;-67
2022/09/02 10:48:32;;;;;;;2.35;1.15;;;26.80;94.50;;;;;;5002282;28;20603;-67
2022/09/02 10:51:26;;;;;;;1.58;1.17;;;26.70;94.10;;;;;;5001283;28;20197;-66
2022/09/02 10:54:11;;;;;;;2.92;1.40;;;26.30;94.50;;;;;;4998126;28;20212;-67
2022/09/02 10:56:58;;;;;;;3.03;1.40;;;26.30;94.40;;;;;;4997787;28;20651;-67
2022/09/02 10:59:52;;;;;;;3.70;1.30;;;26.60;94.50;;;;;;4996153;28;20449;-67
2022/09/02 11:02:37;;;;;;;6.18;1.40;;;26.50;93.90;;;;;;5000146;28;20227;-67
2022/09/02 11:05:13;;;;;;;5.88;1.77;;;26.60;93.80;;;;;;4995343;28;20224;-67
2022/09/02 11:07:59;;;;;;;2.72;1.40;;;26.30;94.10;;;;;;4992112;28;20895;-68
2022/09/02 11:10:33;;;;;;;2.72;1.30;;;26.40;94.40;;;;;;5001252;28;20193;-67
2022/09/02 11:13:14;;;;;;;2.30;1.30;;;26.40;94.60;;;;;;4997779;28;20228;-67
2022/09/02 11:15:48;;;;;;;2.05;1.50;;;26.40;94.40;;;;;;4994931;28;20211;-68
2022/09/02 11:18:34;;;;;;;1.38;1.20;;;26.40;94.40;;;;;;4991096;28;20196;-67
2022/09/02 11:21:29;;;;;;;2.58;1.90;;;26.50;94.20;;;;;;4999666;28;20583;-70
2022/09/02 11:24:34;;;;;;;2.35;1.10;;;26.60;94.10;;;;;;5000217;28;20211;-69
2022/09/02 11:27:13;;;;;;;1.40;1.25;;;26.40;94.20;;;;;;4977797;28;20247;-67
2022/09/02 11:30:22;;;;;;;1.45;1.30;;;26.30;93.90;;;;;;5002830;28;20258;-67
2022/09/02 11:33:09;;;;;;;3.53;1.55;;;26.00;94.30;;;;;;4979736;28;20251;-67
2022/09/02 11:35:38;;;;;;;1.58;1.40;;;26.00;93.80;;;;;;4998210;28;20212;-67
2022/09/02 11:38:11;;;;;;;3.80;1.30;;;26.10;93.70;;;;;;5001835;28;20270;-69
2022/09/02 11:40:56;;;;;;;6.05;1.27;;;26.30;93.40;;;;;;4992547;28;20287;-70
2022/09/02 11:44:04;;;;;;;2.35;1.13;;;26.40;93.20;;;;;;4996805;28;20305;-67
2022/09/02 11:46:49;;;;;;;2.60;1.20;;;26.20;93.60;;;;;;4998890;28;20216;-69
2022/09/02 11:49:57;;;;;;;2.28;1.40;;;26.40;94.00;;;;;;4994905;28;20199;-69
2022/09/02 11:52:43;;;;;;;3.35;1.17;;;26.60;93.30;;;;;;4994259;28;20231;-67
2022/09/02 11:55:19;;;;;;;3.33;1.38;;;26.60;93.50;;;;;;4999139;28;20731;-67
2022/09/02 11:57:58;;;;;;;3.25;1.48;;;26.60;93.60;;;;;;5003112;28;20687;-70
2022/09/02 12:00:29;;;;;;;1.90;1.10;;;26.70;93.30;;;;;;4998789;28;20676;-69
2022/09/02 12:03:04;;;;;;;1.30;1.17;;;26.70;93.10;;;;;;5000646;28;20587;-69
2022/09/02 12:06:13;;;;;;;3.75;1.70;;;26.80;93.40;;;;;;4994666;28;20228;-66
2022/09/02 12:08:41;;;;;;;1.40;1.15;;;27.00;93.00;;;;;;4999882;28;20208;-67
2022/09/02 12:11:29;;;;;;;2.95;1.40;;;27.10;93.20;;;;;;5017101;28;20219;-67
2022/09/02 12:13:57;;;;;;;1.40;1.15;;;27.20;92.30;;;;;;4992927;28;20571;-67
2022/09/02 12:16:28;;;;;;;3.15;1.45;;;27.10;92.30;;;;;;4998020;28;20291;-69
2022/09/02 12:18:57;;;;;;;1.98;1.42;;;26.90;91.90;;;;;;4981812;28;20200;-70
2022/09/02 12:21:25;;;;;;;1.88;1.30;;;26.80;92.50;;;;;;4996221;28;20199;-69
2022/09/02 12:23:55;;;;;;;1.48;1.20;;;26.90;93.00;;;;;;4993831;28;20231;-71
2022/09/02 12:26:35;;;;;;;3.50;1.30;;;27.10;92.90;;;;;;4995259;28;20217;-69
2022/09/02 12:29:23;;;;;;;5.88;1.40;;;27.10;92.60;;;;;;4992699;28;20196;-68
2022/09/02 12:31:51;;;;;;;1.42;1.20;;;26.90;92.90;;;;;;4997352;28;20219;-70
2022/09/02 12:34:24;;;;;;;1.70;1.23;;;27.00;92.70;;;;;;4992197;28;20197;-70
2022/09/02 12:36:57;;;;;;;3.25;1.50;;;26.90;92.90;;;;;;4995820;28;20208;-72
2022/09/02 12:39:29;;;;;;;1.90;1.58;;;26.80;92.40;;;;;;4994816;28;20218;-70
2022/09/02 12:42:09;;;;;;;2.17;1.15;;;26.80;93.00;;;;;;4994345;28;20512;-71
2022/09/02 12:44:40;;;;;;;1.85;1.20;;;27.00;93.20;;;;;;5002590;28;20197;-70
2022/09/02 12:47:18;;;;;;;1.40;1.20;;;27.20;92.50;;;;;;4991533;28;20191;-71
2022/09/02 12:49:59;;;;;;;3.55;1.45;;;27.00;92.30;;;;;;4996678;28;20204;-70
2022/09/02 12:52:41;;;;;;;2.17;1.40;;;26.80;92.00;;;;;;4994132;28;20824;-71
2022/09/02 12:55:22;;;;;;;1.63;1.40;;;26.80;92.50;;;;;;4992336;28;20286;-69
2022/09/02 12:57:53;;;;;;;4.40;1.40;;;27.00;92.50;;;;;;4997673;28;20205;-69
2022/09/02 13:00:47;;;;;;;1.40;1.23;;;27.10;92.90;;;;;;5004338;28;20200;-69
2022/09/02 13:03:36;;;;;;;1.58;1.30;;;27.10;92.80;;;;;;4990754;28;20224;-69
2022/09/02 13:06:32;;;;;;;1.80;1.30;;;27.20;92.20;;;;;;4994455;28;20220;-69
2022/09/02 13:09:35;;;;;;;1.55;1.10;;;27.00;92.40;;;;;;4992435;28;20197;-68
2022/09/02 13:12:25;;;;;;;2.58;1.33;;;26.80;93.00;;;;;;4993034;28;20209;-68
2022/09/02 13:15:00;;;;;;;1.70;1.23;;;26.90;92.20;;;;;;4996900;28;20204;-68
2022/09/02 13:17:32;;;;;;;1.27;1.17;;;27.00;92.40;;;;;;5001959;28;20218;-68
2022/09/02 13:20:23;;;;;;;1.60;1.20;;;27.10;92.20;;;;;;4998146;28;20245;-68
2022/09/02 13:23:04;;;;;;;2.13;1.35;;;27.30;92.50;;;;;;4998351;28;20219;-68